Latest Coastal Weather Observations for Broome Port

IDW60701

Issued at 1:23 pm WST Monday 26 June 2017 (issued every 10 minutes, with the page automatically refreshed every 10 minutes)

About coastal observations | Map of coastal stations | Coastal observations for WA | Marine services | Other Formats
Station Details ID: 003102 Name: BROOME NTC AWS Lat: -18.00 Lon: 122.22 Height: 0.0 m
Data from the previous 72 hours. | See also: Recent months for locations in Western Australia
Date/Time
WST
Temp
°C
Wind Pressure Rain since
9am
mm
Weather Cloud Vis
km
Sea
Height
m
Swell
Dir  Spd
kts
Gust
kts
hPa Trend Height
m
Period
s
Dir
26/01:00pm 23.6 WNW 6 8 1012.6 - - - - - - - - -
26/12:30pm 23.7 WNW 7 9 1013.1 - - - - - - - - -
26/12:00pm 24.4 SW 1 3 1013.5 - - - - - - - - -
26/11:30am 23.9 CALM 0 2 1013.8 - - - - - - - - -
26/11:00am 22.6 NE 2 3 1014.2 - - - - - - - - -
26/10:30am 22.4 ESE 1 2 1014.4 - - - - - - - - -
26/10:00am 22.1 SE 1 2 1014.7 - - - - - - - - -
26/09:30am 21.7 SSE 3 4 1014.8 - - - - - - - - -
26/09:00am 21.9 S 5 7 1014.8 - - - - - - - - -
26/08:30am 21.8 S 4 8 1014.5 - - - - - - - - -
26/08:00am 21.6 SSE 5 6 1014.2 - - - - - - - - -
26/07:30am 21.5 SSE 4 6 1013.6 - - - - - - - - -
26/07:00am 21.3 S 5 5 1013.3 - - - - - - - - -
26/06:30am 21.1 SSE 3 4 1012.7 - - - - - - - - -
26/06:00am 21.3 SSE 2 3 1012.3 - - - - - - - - -
26/05:30am 21.3 S 3 4 1012.1 - - - - - - - - -
26/05:00am 21.3 S 3 4 1011.9 - - - - - - - - -
26/04:30am 21.4 S 3 4 1011.7 - - - - - - - - -
26/04:00am 21.4 S 3 4 1011.7 - - - - - - - - -
26/03:30am 21.6 S 3 5 1011.6 - - - - - - - - -
26/03:00am 21.9 SSW 2 3 1011.7 - - - - - - - - -
26/02:30am 22.3 WSW 3 3 1011.9 - - - - - - - - -
26/02:00am 22.6 WSW 3 3 1012.0 - - - - - - - - -
26/01:30am 22.2 WSW 4 4 1012.2 - - - - - - - - -
26/01:00am 22.2 WSW 4 5 1012.5 - - - - - - - - -
26/12:30am 22.6 WSW 4 5 1012.8 - - - - - - - - -
26/12:00am 22.4 W 3 4 1012.9 - - - - - - - - -
 
Date/Time
WST
Temp
°C
Wind Pressure Rain since
9am
mm
Weather Cloud Vis
km
Sea
Height
m
Swell
Dir  Spd
kts
Gust
kts
hPa Trend Height
m
Period
s
Dir
25/11:30pm 22.4 W 3 4 1013.0 - - - - - - - - -
25/11:00pm 22.2 WNW 3 3 1013.0 - - - - - - - - -
25/10:30pm 22.4 WNW 5 6 1013.1 - - - - - - - - -
25/10:00pm 22.3 WNW 5 6 1013.2 - - - - - - - - -
25/09:30pm 22.4 WNW 5 6 1013.2 - - - - - - - - -
25/09:00pm 22.6 W 7 10 1013.0 - - - - - - - - -
25/08:30pm 22.6 W 7 10 1012.8 - - - - - - - - -
25/08:00pm 22.7 WNW 7 8 1012.6 - - - - - - - - -
25/07:30pm 22.7 WNW 7 7 1012.4 - - - - - - - - -
25/07:00pm 22.7 W 7 9 1012.1 - - - - - - - - -
25/06:30pm 22.8 W 8 11 1011.8 - - - - - - - - -
25/06:00pm 22.9 W 8 11 1011.6 - - - - - - - - -
25/05:30pm 23.1 W 10 14 1011.4 - - - - - - - - -
25/05:00pm 23.3 W 11 14 1011.1 - - - - - - - - -
25/04:30pm 23.5 WNW 11 13 1011.0 - - - - - - - - -
25/04:00pm 23.5 WNW 10 13 1010.7 - - - - - - - - -
25/03:30pm 23.7 WNW 11 14 1010.6 - - - - - - - - -
25/03:00pm 23.8 WNW 12 14 1010.7 - - - - - - - - -
25/02:30pm 23.7 WNW 11 14 1010.7 - - - - - - - - -
25/02:00pm 23.6 WNW 11 13 1010.7 - - - - - - - - -
25/01:30pm 23.3 WNW 10 13 1011.1 - - - - - - - - -
25/01:00pm 23.3 WNW 10 12 1011.4 - - - - - - - - -
25/12:30pm 22.9 WNW 9 12 1011.6 - - - - - - - - -
25/12:00pm 22.8 W 6 8 1012.1 - - - - - - - - -
25/11:30am 22.5 WNW 5 7 1012.8 - - - - - - - - -
25/11:00am 22.9 WSW 3 4 1013.2 - - - - - - - - -
25/10:30am 22.2 SW 1 2 1013.6 - - - - - - - - -
25/10:00am 22.2 SW 1 3 1013.7 - - - - - - - - -
25/09:30am 21.9 SW 1 2 1013.9 - - - - - - - - -
25/09:00am 20.7 SW 3 5 1013.8 - - - - - - - - -
25/08:30am 20.8 SSW 5 8 1013.8 - - - - - - - - -
25/08:00am 20.8 SW 8 10 1013.4 - - - - - - - - -
25/07:30am 20.7 SW 6 8 1013.0 - - - - - - - - -
25/07:00am 20.5 SSW 5 6 1012.6 - - - - - - - - -
25/06:30am 20.5 S 6 7 1012.1 - - - - - - - - -
25/06:00am 21.1 SSW 6 8 1011.8 - - - - - - - - -
25/05:30am 21.1 SW 7 8 1011.5 - - - - - - - - -
25/05:00am 20.8 SSW 8 9 1011.5 - - - - - - - - -
25/04:30am 20.9 SSW 5 5 1011.4 - - - - - - - - -
25/04:00am 21.1 SSW 5 7 1011.5 - - - - - - - - -
25/03:30am 21.1 SW 6 8 1011.5 - - - - - - - - -
25/03:00am 21.1 S 3 4 1011.5 - - - - - - - - -
25/02:30am 21.2 SSE 2 3 1011.7 - - - - - - - - -
25/02:00am 21.3 E 1 2 1011.9 - - - - - - - - -
25/01:30am 21.3 CALM 0 1 1012.0 - - - - - - - - -
25/01:00am 21.6 SSE 1 1 1012.2 - - - - - - - - -
25/12:30am 21.7 SSW 1 2 1012.3 - - - - - - - - -
25/12:00am 21.8 CALM 0 1 1012.4 - - - - - - - - -
 
Date/Time
WST
Temp
°C
Wind Pressure Rain since
9am
mm
Weather Cloud Vis
km
Sea
Height
m
Swell
Dir  Spd
kts
Gust
kts
hPa Trend Height
m
Period
s
Dir
24/11:30pm 21.9 SW 4 5 1012.5 - - - - - - - - -
24/11:00pm 22.0 SW 5 6 1012.6 - - - - - - - - -
24/10:30pm 22.2 SW 6 7 1012.6 - - - - - - - - -
24/10:00pm 22.4 WSW 7 7 1012.7 - - - - - - - - -
24/09:30pm 22.6 WSW 7 8 1012.8 - - - - - - - - -
24/09:00pm 22.9 WSW 8 9 1012.5 - - - - - - - - -
24/08:30pm 22.9 WSW 8 9 1012.2 - - - - - - - - -
24/08:00pm 22.9 WSW 9 10 1011.9 - - - - - - - - -
24/07:30pm 23.0 WSW 8 10 1011.6 - - - - - - - - -
24/07:00pm 23.3 W 12 14 1011.2 - - - - - - - - -
24/06:30pm 23.3 WSW 12 15 1010.8 - - - - - - - - -
24/06:00pm 23.4 W 13 16 1010.5 - - - - - - - - -
24/05:30pm 23.7 W 13 17 1010.1 - - - - - - - - -
24/05:00pm 23.9 W 15 19 1009.9 - - - - - - - - -
24/04:30pm 24.2 W 15 20 1009.6 - - - - - - - - -
24/04:00pm 24.3 W 14 17 1009.4 - - - - - - - - -
24/03:30pm 24.4 W 16 18 1009.3 - - - - - - - - -
24/03:00pm 24.6 W 12 15 1009.2 - - - - - - - - -
24/02:30pm 24.6 W 11 13 1009.3 - - - - - - - - -
24/02:00pm 24.6 W 11 12 1009.5 - - - - - - - - -
24/01:30pm 24.8 W 8 11 1009.7 - - - - - - - - -
24/01:00pm 26.9 WSW 6 7 1010.1 - - - - - - - - -
24/12:30pm 26.9 CALM 0 1 1010.5 - - - - - - - - -
24/12:00pm 25.0 SSW 1 3 1011.2 - - - - - - - - -
24/11:30am 24.3 SSE 1 1 1011.9 - - - - - - - - -
24/11:00am 22.3 SE 1 2 1012.4 - - - - - - - - -
24/10:30am 21.9 ESE 2 2 1012.9 - - - - - - - - -
24/10:00am 21.6 ESE 3 4 1013.2 - - - - - - - - -
24/09:30am 21.5 ESE 4 4 1013.3 - - - - - - - - -
24/09:00am 21.6 ESE 4 5 1013.5 - - - - - - - - -
24/08:30am 21.6 SE 4 5 1013.5 - - - - - - - - -
24/08:00am 21.5 SSE 4 5 1013.1 - - - - - - - - -
24/07:30am 21.7 SSE 4 4 1012.8 - - - - - - - - -
24/07:00am 21.4 S 3 4 1012.4 - - - - - - - - -
24/06:30am 21.4 S 3 4 1012.2 - - - - - - - - -
24/06:00am 21.5 S 4 4 1012.0 - - - - - - - - -
24/05:30am 21.6 SSW 5 6 1011.7 - - - - - - - - -
24/05:00am 21.5 SW 8 9 1011.7 - - - - - - - - -
24/04:30am 21.6 SW 8 9 1011.7 - - - - - - - - -
24/04:00am 21.8 SW 7 9 1011.8 - - - - - - - - -
24/03:30am 22.1 SW 7 9 1011.9 - - - - - - - - -
24/03:00am 21.9 WSW 4 5 1012.0 - - - - - - - - -
24/02:30am 22.1 SW 2 4 1012.2 - - - - - - - - -
24/02:00am 22.0 CALM 0 2 1012.5 - - - - - - - - -
24/01:30am 22.6 SW 2 2 1012.6 - - - - - - - - -
24/01:00am 22.3 CALM 0 1 1012.7 - - - - - - - - -
24/12:30am 22.6 SSE 1 2 1012.9 - - - - - - - - -
24/12:00am 22.3 E 1 4 1012.9 - - - - - - - - -
 
Date/Time
WST
Temp
°C
Wind Pressure Rain since
9am
mm
Weather Cloud Vis
km
Sea
Height
m
Swell
Dir  Spd
kts
Gust
kts
hPa Trend Height
m
Period
s
Dir
23/11:30pm 22.4 SSE 4 7 1013.0 - - - - - - - - -
23/11:00pm 22.4 SSW 6 7 1013.0 - - - - - - - - -
23/10:30pm 22.6 SW 9 12 1013.0 - - - - - - - - -
23/10:00pm 22.5 SW 9 12 1013.0 - - - - - - - - -
23/09:30pm 22.7 SW 12 14 1012.8 - - - - - - - - -
23/09:00pm 22.9 SW 12 14 1012.7 - - - - - - - - -
23/08:30pm 22.8 SW 12 14 1012.5 - - - - - - - - -
23/08:00pm 22.7 SW 10 11 1012.3 - - - - - - - - -
23/07:30pm 22.9 WSW 10 11 1012.1 - - - - - - - - -
23/07:00pm 23.1 WSW 9 11 1011.8 - - - - - - - - -
23/06:30pm 23.3 WSW 12 14 1011.5 - - - - - - - - -
23/06:00pm 23.4 WSW 13 15 1011.1 - - - - - - - - -
23/05:30pm 23.4 WSW 14 17 1010.8 - - - - - - - - -
23/05:00pm 23.5 WSW 13 16 1010.6 - - - - - - - - -
23/04:30pm 24.3 WSW 14 18 1010.4 - - - - - - - - -
23/04:00pm 23.9 WSW 13 16 1010.5 - - - - - - - - -
23/03:30pm 23.9 W 14 19 1010.5 - - - - - - - - -
23/03:00pm 23.9 W 14 17 1010.8 - - - - - - - - -
23/02:30pm 24.1 W 14 17 1011.0 - - - - - - - - -
23/02:00pm 24.4 W 12 15 1011.2 - - - - - - - - -
23/01:30pm 24.8 W 10 11 1011.6 - - - - - - - - -

Other Formats:

Comma delimited format used in spreadsheet applications
http://www.bom.gov.au/fwo/IDW60701/IDW60701.95202.axf

JavaScript Object Notation format (JSON) in row-major order
http://www.bom.gov.au/fwo/IDW60701/IDW60701.95202.json